sensor_id;sensor_type;location;lat;lon;timestamp;P1;durP1;ratioP1;P2;durP2;ratioP2
20480;SDS011;10399;50.754;3.366;2023-06-19T00:04:16;9.02;;;4.97;;
20480;SDS011;10399;50.754;3.366;2023-06-19T00:06:43;7.20;;;4.30;;
20480;SDS011;10399;50.754;3.366;2023-06-19T00:09:11;6.82;;;4.32;;
20480;SDS011;10399;50.754;3.366;2023-06-19T00:11:42;8.40;;;4.20;;
20480;SDS011;10399;50.754;3.366;2023-06-19T00:14:10;8.43;;;3.92;;
20480;SDS011;10399;50.754;3.366;2023-06-19T00:16:39;8.60;;;4.22;;
20480;SDS011;10399;50.754;3.366;2023-06-19T00:19:08;11.25;;;4.15;;
20480;SDS011;10399;50.754;3.366;2023-06-19T00:21:38;5.70;;;4.05;;
20480;SDS011;10399;50.754;3.366;2023-06-19T00:24:05;7.28;;;4.80;;
20480;SDS011;10399;50.754;3.366;2023-06-19T00:26:32;8.57;;;4.70;;
20480;SDS011;10399;50.754;3.366;2023-06-19T00:29:00;11.43;;;5.32;;
20480;SDS011;10399;50.754;3.366;2023-06-19T00:31:26;11.60;;;6.93;;
20480;SDS011;10399;50.754;3.366;2023-06-19T00:33:54;9.85;;;6.75;;
20480;SDS011;10399;50.754;3.366;2023-06-19T00:36:21;13.48;;;7.93;;
20480;SDS011;10399;50.754;3.366;2023-06-19T00:38:50;12.13;;;7.45;;
20480;SDS011;10399;50.754;3.366;2023-06-19T00:41:17;14.93;;;7.82;;
20480;SDS011;10399;50.754;3.366;2023-06-19T00:43:44;11.45;;;7.65;;
20480;SDS011;10399;50.754;3.366;2023-06-19T00:46:11;12.00;;;8.15;;
20480;SDS011;10399;50.754;3.366;2023-06-19T00:48:39;13.48;;;8.20;;
20480;SDS011;10399;50.754;3.366;2023-06-19T00:51:06;13.48;;;8.73;;
20480;SDS011;10399;50.754;3.366;2023-06-19T00:53:33;14.05;;;8.93;;
20480;SDS011;10399;50.754;3.366;2023-06-19T00:56:01;13.75;;;9.23;;
20480;SDS011;10399;50.754;3.366;2023-06-19T00:58:29;12.98;;;9.07;;
20480;SDS011;10399;50.754;3.366;2023-06-19T01:00:57;13.05;;;8.90;;
20480;SDS011;10399;50.754;3.366;2023-06-19T01:03:34;14.80;;;9.52;;
20480;SDS011;10399;50.754;3.366;2023-06-19T01:06:08;16.17;;;9.82;;
20480;SDS011;10399;50.754;3.366;2023-06-19T01:08:42;14.95;;;8.57;;
20480;SDS011;10399;50.754;3.366;2023-06-19T01:11:15;13.75;;;8.98;;
20480;SDS011;10399;50.754;3.366;2023-06-19T01:13:55;14.43;;;8.48;;
20480;SDS011;10399;50.754;3.366;2023-06-19T01:16:26;13.95;;;8.80;;
20480;SDS011;10399;50.754;3.366;2023-06-19T01:18:56;15.50;;;9.13;;
20480;SDS011;10399;50.754;3.366;2023-06-19T01:21:23;15.10;;;9.25;;
20480;SDS011;10399;50.754;3.366;2023-06-19T01:23:50;13.10;;;9.13;;
20480;SDS011;10399;50.754;3.366;2023-06-19T01:26:19;11.73;;;6.88;;
20480;SDS011;10399;50.754;3.366;2023-06-19T01:28:54;9.77;;;5.88;;
20480;SDS011;10399;50.754;3.366;2023-06-19T01:31:26;9.25;;;6.03;;
20480;SDS011;10399;50.754;3.366;2023-06-19T01:34:04;9.93;;;5.63;;
20480;SDS011;10399;50.754;3.366;2023-06-19T01:36:35;6.35;;;4.35;;
20480;SDS011;10399;50.754;3.366;2023-06-19T01:39:02;11.30;;;5.32;;
20480;SDS011;10399;50.754;3.366;2023-06-19T01:41:31;8.43;;;5.85;;
20480;SDS011;10399;50.754;3.366;2023-06-19T01:44:00;9.57;;;6.20;;
20480;SDS011;10399;50.754;3.366;2023-06-19T01:46:27;10.05;;;7.15;;
20480;SDS011;10399;50.754;3.366;2023-06-19T01:48:54;10.32;;;6.47;;
20480;SDS011;10399;50.754;3.366;2023-06-19T01:51:21;12.88;;;7.63;;
20480;SDS011;10399;50.754;3.366;2023-06-19T01:53:48;12.45;;;6.95;;
20480;SDS011;10399;50.754;3.366;2023-06-19T01:56:15;14.73;;;7.80;;
20480;SDS011;10399;50.754;3.366;2023-06-19T01:58:42;10.65;;;7.88;;
20480;SDS011;10399;50.754;3.366;2023-06-19T02:01:09;11.75;;;8.35;;
20480;SDS011;10399;50.754;3.366;2023-06-19T02:03:36;11.75;;;8.05;;
20480;SDS011;10399;50.754;3.366;2023-06-19T02:06:04;12.80;;;8.23;;
20480;SDS011;10399;50.754;3.366;2023-06-19T02:08:31;13.27;;;8.13;;
20480;SDS011;10399;50.754;3.366;2023-06-19T02:10:58;12.73;;;9.27;;
20480;SDS011;10399;50.754;3.366;2023-06-19T02:13:25;15.85;;;8.75;;
20480;SDS011;10399;50.754;3.366;2023-06-19T02:15:52;12.73;;;9.60;;
20480;SDS011;10399;50.754;3.366;2023-06-19T02:18:19;12.88;;;9.45;;
20480;SDS011;10399;50.754;3.366;2023-06-19T02:20:46;14.20;;;10.55;;
20480;SDS011;10399;50.754;3.366;2023-06-19T02:23:13;16.77;;;10.43;;
20480;SDS011;10399;50.754;3.366;2023-06-19T02:25:40;17.83;;;10.32;;
20480;SDS011;10399;50.754;3.366;2023-06-19T02:28:07;16.60;;;10.50;;
20480;SDS011;10399;50.754;3.366;2023-06-19T02:30:35;15.48;;;11.15;;
20480;SDS011;10399;50.754;3.366;2023-06-19T02:33:02;21.00;;;11.98;;
20480;SDS011;10399;50.754;3.366;2023-06-19T02:35:29;15.50;;;11.02;;
20480;SDS011;10399;50.754;3.366;2023-06-19T02:37:56;16.08;;;11.50;;
20480;SDS011;10399;50.754;3.366;2023-06-19T02:40:24;15.57;;;10.88;;
20480;SDS011;10399;50.754;3.366;2023-06-19T02:42:51;14.77;;;10.88;;
20480;SDS011;10399;50.754;3.366;2023-06-19T02:45:19;13.65;;;11.07;;
20480;SDS011;10399;50.754;3.366;2023-06-19T02:47:46;18.10;;;11.48;;
20480;SDS011;10399;50.754;3.366;2023-06-19T02:50:13;14.20;;;10.98;;
20480;SDS011;10399;50.754;3.366;2023-06-19T02:52:40;13.05;;;10.77;;
20480;SDS011;10399;50.754;3.366;2023-06-19T02:55:07;14.98;;;10.95;;
20480;SDS011;10399;50.754;3.366;2023-06-19T02:57:34;13.95;;;11.63;;
20480;SDS011;10399;50.754;3.366;2023-06-19T03:00:02;17.85;;;11.75;;
20480;SDS011;10399;50.754;3.366;2023-06-19T03:02:32;16.58;;;11.57;;
20480;SDS011;10399;50.754;3.366;2023-06-19T03:04:59;21.67;;;11.85;;
20480;SDS011;10399;50.754;3.366;2023-06-19T03:07:27;17.20;;;12.25;;
20480;SDS011;10399;50.754;3.366;2023-06-19T03:09:55;21.27;;;12.88;;
20480;SDS011;10399;50.754;3.366;2023-06-19T03:12:22;15.13;;;11.57;;
20480;SDS011;10399;50.754;3.366;2023-06-19T03:14:49;16.60;;;13.13;;
20480;SDS011;10399;50.754;3.366;2023-06-19T03:17:16;22.13;;;12.63;;
20480;SDS011;10399;50.754;3.366;2023-06-19T03:19:43;16.73;;;12.27;;
20480;SDS011;10399;50.754;3.366;2023-06-19T03:22:10;18.52;;;13.23;;
20480;SDS011;10399;50.754;3.366;2023-06-19T03:24:37;17.85;;;13.35;;
20480;SDS011;10399;50.754;3.366;2023-06-19T03:27:04;22.40;;;13.23;;
20480;SDS011;10399;50.754;3.366;2023-06-19T03:29:32;25.83;;;14.65;;
20480;SDS011;10399;50.754;3.366;2023-06-19T03:31:59;23.17;;;15.95;;
20480;SDS011;10399;50.754;3.366;2023-06-19T03:34:26;25.80;;;16.15;;
20480;SDS011;10399;50.754;3.366;2023-06-19T03:36:53;22.25;;;16.02;;
20480;SDS011;10399;50.754;3.366;2023-06-19T03:39:20;24.38;;;17.58;;
20480;SDS011;10399;50.754;3.366;2023-06-19T03:41:47;25.13;;;17.85;;
20480;SDS011;10399;50.754;3.366;2023-06-19T03:44:14;25.60;;;18.58;;
20480;SDS011;10399;50.754;3.366;2023-06-19T03:46:41;27.70;;;19.05;;
20480;SDS011;10399;50.754;3.366;2023-06-19T03:49:09;27.70;;;18.38;;
20480;SDS011;10399;50.754;3.366;2023-06-19T03:51:36;23.70;;;18.00;;
20480;SDS011;10399;50.754;3.366;2023-06-19T03:54:03;24.55;;;18.33;;
20480;SDS011;10399;50.754;3.366;2023-06-19T03:56:30;23.75;;;17.95;;
20480;SDS011;10399;50.754;3.366;2023-06-19T03:58:57;30.20;;;18.75;;
20480;SDS011;10399;50.754;3.366;2023-06-19T04:01:24;28.00;;;20.83;;
20480;SDS011;10399;50.754;3.366;2023-06-19T04:03:51;27.20;;;18.98;;
20480;SDS011;10399;50.754;3.366;2023-06-19T04:06:19;26.63;;;19.92;;
20480;SDS011;10399;50.754;3.366;2023-06-19T04:08:46;28.05;;;20.25;;
20480;SDS011;10399;50.754;3.366;2023-06-19T04:11:13;29.67;;;19.25;;
20480;SDS011;10399;50.754;3.366;2023-06-19T04:13:40;28.15;;;20.02;;
20480;SDS011;10399;50.754;3.366;2023-06-19T04:16:07;31.98;;;20.20;;
20480;SDS011;10399;50.754;3.366;2023-06-19T04:18:34;30.83;;;21.42;;
20480;SDS011;10399;50.754;3.366;2023-06-19T04:21:01;35.25;;;20.98;;
20480;SDS011;10399;50.754;3.366;2023-06-19T04:23:28;30.58;;;21.20;;
20480;SDS011;10399;50.754;3.366;2023-06-19T04:25:55;27.65;;;19.80;;
20480;SDS011;10399;50.754;3.366;2023-06-19T04:28:22;29.17;;;20.63;;
20480;SDS011;10399;50.754;3.366;2023-06-19T04:30:49;29.30;;;21.00;;
20480;SDS011;10399;50.754;3.366;2023-06-19T04:33:16;28.67;;;20.98;;
20480;SDS011;10399;50.754;3.366;2023-06-19T04:35:48;27.25;;;20.60;;
20480;SDS011;10399;50.754;3.366;2023-06-19T04:38:15;29.50;;;21.00;;
20480;SDS011;10399;50.754;3.366;2023-06-19T04:40:42;33.70;;;22.73;;
20480;SDS011;10399;50.754;3.366;2023-06-19T04:43:09;31.65;;;20.95;;
20480;SDS011;10399;50.754;3.366;2023-06-19T04:45:37;31.25;;;20.45;;
20480;SDS011;10399;50.754;3.366;2023-06-19T04:48:04;28.35;;;19.23;;
20480;SDS011;10399;50.754;3.366;2023-06-19T04:50:31;30.15;;;20.38;;
20480;SDS011;10399;50.754;3.366;2023-06-19T04:52:58;26.92;;;18.08;;
20480;SDS011;10399;50.754;3.366;2023-06-19T04:55:26;28.90;;;21.45;;
20480;SDS011;10399;50.754;3.366;2023-06-19T04:57:53;29.92;;;20.15;;
20480;SDS011;10399;50.754;3.366;2023-06-19T05:00:20;29.50;;;20.90;;
20480;SDS011;10399;50.754;3.366;2023-06-19T05:02:50;29.67;;;21.63;;
20480;SDS011;10399;50.754;3.366;2023-06-19T05:05:18;31.35;;;21.83;;
20480;SDS011;10399;50.754;3.366;2023-06-19T05:07:49;32.13;;;20.40;;
20480;SDS011;10399;50.754;3.366;2023-06-19T05:10:17;31.77;;;21.33;;
20480;SDS011;10399;50.754;3.366;2023-06-19T05:12:45;34.65;;;20.63;;
20480;SDS011;10399;50.754;3.366;2023-06-19T05:15:12;29.15;;;19.58;;
20480;SDS011;10399;50.754;3.366;2023-06-19T05:17:40;29.65;;;19.90;;
20480;SDS011;10399;50.754;3.366;2023-06-19T05:20:07;31.70;;;21.40;;
20480;SDS011;10399;50.754;3.366;2023-06-19T05:22:35;28.10;;;20.40;;
20480;SDS011;10399;50.754;3.366;2023-06-19T05:25:03;28.63;;;20.02;;
20480;SDS011;10399;50.754;3.366;2023-06-19T05:27:30;26.85;;;19.52;;
20480;SDS011;10399;50.754;3.366;2023-06-19T05:29:58;31.15;;;19.30;;
20480;SDS011;10399;50.754;3.366;2023-06-19T05:32:25;27.75;;;19.83;;
20480;SDS011;10399;50.754;3.366;2023-06-19T05:34:52;29.25;;;18.45;;
20480;SDS011;10399;50.754;3.366;2023-06-19T05:37:19;29.73;;;19.00;;
20480;SDS011;10399;50.754;3.366;2023-06-19T05:39:48;29.70;;;19.58;;
20480;SDS011;10399;50.754;3.366;2023-06-19T05:42:15;30.90;;;19.40;;
20480;SDS011;10399;50.754;3.366;2023-06-19T05:44:43;29.55;;;20.08;;
20480;SDS011;10399;50.754;3.366;2023-06-19T05:47:10;28.52;;;19.42;;
20480;SDS011;10399;50.754;3.366;2023-06-19T05:49:38;32.10;;;19.50;;
20480;SDS011;10399;50.754;3.366;2023-06-19T05:52:07;33.63;;;19.58;;
20480;SDS011;10399;50.754;3.366;2023-06-19T05:54:34;28.58;;;20.08;;
20480;SDS011;10399;50.754;3.366;2023-06-19T05:57:01;31.40;;;19.73;;
20480;SDS011;10399;50.754;3.366;2023-06-19T05:59:28;27.67;;;20.17;;
20480;SDS011;10399;50.754;3.366;2023-06-19T06:01:55;30.63;;;19.95;;
20480;SDS011;10399;50.754;3.366;2023-06-19T06:04:23;30.17;;;20.73;;
20480;SDS011;10399;50.754;3.366;2023-06-19T06:06:50;29.52;;;20.27;;
20480;SDS011;10399;50.754;3.366;2023-06-19T06:09:17;31.55;;;20.10;;
20480;SDS011;10399;50.754;3.366;2023-06-19T06:11:44;25.50;;;19.55;;
20480;SDS011;10399;50.754;3.366;2023-06-19T06:14:11;29.48;;;20.27;;
20480;SDS011;10399;50.754;3.366;2023-06-19T06:16:38;30.70;;;21.35;;
20480;SDS011;10399;50.754;3.366;2023-06-19T06:19:06;27.33;;;18.90;;
20480;SDS011;10399;50.754;3.366;2023-06-19T06:21:33;24.77;;;18.42;;
20480;SDS011;10399;50.754;3.366;2023-06-19T06:24:01;27.65;;;19.10;;
20480;SDS011;10399;50.754;3.366;2023-06-19T06:26:29;31.27;;;19.38;;
20480;SDS011;10399;50.754;3.366;2023-06-19T06:28:56;28.65;;;18.20;;
20480;SDS011;10399;50.754;3.366;2023-06-19T06:31:23;30.58;;;20.00;;
20480;SDS011;10399;50.754;3.366;2023-06-19T06:33:50;26.55;;;17.98;;
20480;SDS011;10399;50.754;3.366;2023-06-19T06:36:17;27.52;;;18.05;;
20480;SDS011;10399;50.754;3.366;2023-06-19T06:39:00;30.58;;;18.90;;
20480;SDS011;10399;50.754;3.366;2023-06-19T06:41:27;25.55;;;18.10;;
20480;SDS011;10399;50.754;3.366;2023-06-19T06:43:55;30.50;;;17.88;;
20480;SDS011;10399;50.754;3.366;2023-06-19T06:46:21;27.42;;;17.60;;
20480;SDS011;10399;50.754;3.366;2023-06-19T06:48:49;25.10;;;17.95;;
20480;SDS011;10399;50.754;3.366;2023-06-19T06:51:16;23.15;;;17.83;;
20480;SDS011;10399;50.754;3.366;2023-06-19T06:53:44;27.73;;;18.77;;
20480;SDS011;10399;50.754;3.366;2023-06-19T06:56:11;24.80;;;18.02;;
20480;SDS011;10399;50.754;3.366;2023-06-19T06:58:38;25.48;;;18.33;;
20480;SDS011;10399;50.754;3.366;2023-06-19T07:01:05;31.50;;;18.23;;
20480;SDS011;10399;50.754;3.366;2023-06-19T07:03:32;24.75;;;17.70;;
20480;SDS011;10399;50.754;3.366;2023-06-19T07:06:01;22.27;;;16.73;;
20480;SDS011;10399;50.754;3.366;2023-06-19T07:08:29;26.02;;;17.10;;
20480;SDS011;10399;50.754;3.366;2023-06-19T07:10:56;23.77;;;16.40;;
20480;SDS011;10399;50.754;3.366;2023-06-19T07:13:23;25.67;;;16.30;;
20480;SDS011;10399;50.754;3.366;2023-06-19T07:15:51;26.30;;;15.40;;
20480;SDS011;10399;50.754;3.366;2023-06-19T07:18:18;25.88;;;15.48;;
20480;SDS011;10399;50.754;3.366;2023-06-19T07:20:45;22.30;;;15.57;;
20480;SDS011;10399;50.754;3.366;2023-06-19T07:23:12;19.75;;;14.50;;
20480;SDS011;10399;50.754;3.366;2023-06-19T07:25:40;25.65;;;15.80;;
20480;SDS011;10399;50.754;3.366;2023-06-19T07:28:07;25.80;;;14.25;;
20480;SDS011;10399;50.754;3.366;2023-06-19T07:30:34;19.92;;;13.35;;
20480;SDS011;10399;50.754;3.366;2023-06-19T07:33:02;21.30;;;13.52;;
20480;SDS011;10399;50.754;3.366;2023-06-19T07:35:29;20.65;;;13.07;;
20480;SDS011;10399;50.754;3.366;2023-06-19T07:37:56;17.73;;;12.98;;
20480;SDS011;10399;50.754;3.366;2023-06-19T07:40:23;22.33;;;12.32;;
20480;SDS011;10399;50.754;3.366;2023-06-19T07:42:51;20.55;;;12.50;;
20480;SDS011;10399;50.754;3.366;2023-06-19T07:45:18;16.58;;;13.18;;
20480;SDS011;10399;50.754;3.366;2023-06-19T07:47:55;23.63;;;13.60;;
20480;SDS011;10399;50.754;3.366;2023-06-19T07:50:23;19.35;;;12.30;;
20480;SDS011;10399;50.754;3.366;2023-06-19T07:52:53;22.40;;;12.40;;
20480;SDS011;10399;50.754;3.366;2023-06-19T07:55:20;21.63;;;12.63;;
20480;SDS011;10399;50.754;3.366;2023-06-19T07:57:47;20.85;;;12.68;;
20480;SDS011;10399;50.754;3.366;2023-06-19T08:00:14;21.40;;;13.65;;
20480;SDS011;10399;50.754;3.366;2023-06-19T08:02:42;18.67;;;13.70;;
20480;SDS011;10399;50.754;3.366;2023-06-19T08:05:10;21.45;;;14.07;;
20480;SDS011;10399;50.754;3.366;2023-06-19T08:07:37;22.30;;;12.90;;
20480;SDS011;10399;50.754;3.366;2023-06-19T08:10:04;22.67;;;13.02;;
20480;SDS011;10399;50.754;3.366;2023-06-19T08:12:52;20.92;;;12.85;;
20480;SDS011;10399;50.754;3.366;2023-06-19T08:15:19;17.95;;;12.98;;
20480;SDS011;10399;50.754;3.366;2023-06-19T08:17:47;20.77;;;12.35;;
20480;SDS011;10399;50.754;3.366;2023-06-19T08:20:15;21.08;;;12.95;;
20480;SDS011;10399;50.754;3.366;2023-06-19T08:22:42;21.00;;;12.95;;
20480;SDS011;10399;50.754;3.366;2023-06-19T08:25:09;20.90;;;13.40;;
20480;SDS011;10399;50.754;3.366;2023-06-19T08:27:36;21.17;;;13.40;;
20480;SDS011;10399;50.754;3.366;2023-06-19T08:30:03;18.17;;;11.93;;
20480;SDS011;10399;50.754;3.366;2023-06-19T08:32:31;18.73;;;12.40;;
20480;SDS011;10399;50.754;3.366;2023-06-19T08:34:59;21.30;;;12.50;;
20480;SDS011;10399;50.754;3.366;2023-06-19T08:37:26;18.27;;;11.35;;
20480;SDS011;10399;50.754;3.366;2023-06-19T08:39:54;20.23;;;12.18;;
20480;SDS011;10399;50.754;3.366;2023-06-19T08:42:22;14.30;;;10.35;;
20480;SDS011;10399;50.754;3.366;2023-06-19T08:44:49;15.85;;;10.68;;
20480;SDS011;10399;50.754;3.366;2023-06-19T08:47:16;16.15;;;11.15;;
20480;SDS011;10399;50.754;3.366;2023-06-19T08:49:43;18.80;;;10.95;;
20480;SDS011;10399;50.754;3.366;2023-06-19T08:52:10;19.17;;;11.32;;
20480;SDS011;10399;50.754;3.366;2023-06-19T08:54:37;17.08;;;11.13;;
20480;SDS011;10399;50.754;3.366;2023-06-19T08:57:11;19.05;;;11.18;;
20480;SDS011;10399;50.754;3.366;2023-06-19T08:59:48;18.45;;;11.32;;
20480;SDS011;10399;50.754;3.366;2023-06-19T09:02:16;16.90;;;10.70;;
20480;SDS011;10399;50.754;3.366;2023-06-19T09:04:45;18.50;;;11.30;;
20480;SDS011;10399;50.754;3.366;2023-06-19T09:07:12;17.42;;;11.60;;
20480;SDS011;10399;50.754;3.366;2023-06-19T09:09:44;15.85;;;10.85;;
20480;SDS011;10399;50.754;3.366;2023-06-19T09:12:15;17.65;;;10.13;;
20480;SDS011;10399;50.754;3.366;2023-06-19T09:14:45;16.95;;;10.85;;
20480;SDS011;10399;50.754;3.366;2023-06-19T09:17:17;16.35;;;9.95;;
20480;SDS011;10399;50.754;3.366;2023-06-19T09:19:47;12.85;;;9.90;;
20480;SDS011;10399;50.754;3.366;2023-06-19T09:22:16;17.30;;;10.32;;
20480;SDS011;10399;50.754;3.366;2023-06-19T09:24:47;17.90;;;10.73;;
20480;SDS011;10399;50.754;3.366;2023-06-19T09:27:16;15.95;;;10.80;;
20480;SDS011;10399;50.754;3.366;2023-06-19T09:29:46;14.18;;;10.02;;
20480;SDS011;10399;50.754;3.366;2023-06-19T09:34:42;19.35;;;9.98;;
20480;SDS011;10399;50.754;3.366;2023-06-19T09:37:09;18.52;;;11.15;;
20480;SDS011;10399;50.754;3.366;2023-06-19T09:39:37;17.33;;;10.98;;
20480;SDS011;10399;50.754;3.366;2023-06-19T09:42:09;15.52;;;9.57;;
20480;SDS011;10399;50.754;3.366;2023-06-19T09:44:41;15.18;;;10.38;;
20480;SDS011;10399;50.754;3.366;2023-06-19T09:47:14;14.20;;;10.27;;
20480;SDS011;10399;50.754;3.366;2023-06-19T09:49:53;19.83;;;10.43;;
20480;SDS011;10399;50.754;3.366;2023-06-19T09:52:21;13.70;;;9.10;;
20480;SDS011;10399;50.754;3.366;2023-06-19T09:54:50;16.27;;;10.52;;
20480;SDS011;10399;50.754;3.366;2023-06-19T09:57:17;19.23;;;10.73;;
20480;SDS011;10399;50.754;3.366;2023-06-19T09:59:49;14.15;;;9.02;;
20480;SDS011;10399;50.754;3.366;2023-06-19T10:02:25;14.63;;;9.13;;
20480;SDS011;10399;50.754;3.366;2023-06-19T10:04:55;13.05;;;8.95;;
20480;SDS011;10399;50.754;3.366;2023-06-19T10:07:24;14.98;;;9.13;;
20480;SDS011;10399;50.754;3.366;2023-06-19T10:12:43;13.20;;;8.75;;
20480;SDS011;10399;50.754;3.366;2023-06-19T10:15:18;15.05;;;8.73;;
20480;SDS011;10399;50.754;3.366;2023-06-19T10:18:20;13.88;;;8.98;;
20480;SDS011;10399;50.754;3.366;2023-06-19T10:20:43;13.60;;;9.45;;
20480;SDS011;10399;50.754;3.366;2023-06-19T10:25:56;11.82;;;8.57;;
20480;SDS011;10399;50.754;3.366;2023-06-19T10:28:27;14.65;;;8.77;;
20480;SDS011;10399;50.754;3.366;2023-06-19T10:31:05;14.15;;;9.45;;
20480;SDS011;10399;50.754;3.366;2023-06-19T10:33:35;15.73;;;10.55;;
20480;SDS011;10399;50.754;3.366;2023-06-19T10:36:16;13.13;;;9.95;;
20480;SDS011;10399;50.754;3.366;2023-06-19T10:38:45;14.70;;;10.98;;
20480;SDS011;10399;50.754;3.366;2023-06-19T10:41:16;16.75;;;9.90;;
20480;SDS011;10399;50.754;3.366;2023-06-19T10:46:40;13.88;;;8.32;;
20480;SDS011;10399;50.754;3.366;2023-06-19T10:49:10;15.40;;;9.57;;
20480;SDS011;10399;50.754;3.366;2023-06-19T10:51:41;12.13;;;9.27;;
20480;SDS011;10399;50.754;3.366;2023-06-19T10:54:11;12.13;;;9.30;;
20480;SDS011;10399;50.754;3.366;2023-06-19T10:56:38;16.17;;;12.68;;
20480;SDS011;10399;50.754;3.366;2023-06-19T10:59:07;13.48;;;10.50;;
20480;SDS011;10399;50.754;3.366;2023-06-19T11:01:36;15.45;;;9.82;;
20480;SDS011;10399;50.754;3.366;2023-06-19T11:04:06;18.42;;;11.27;;
20480;SDS011;10399;50.754;3.366;2023-06-19T11:06:34;15.65;;;10.88;;
20480;SDS011;10399;50.754;3.366;2023-06-19T11:09:03;9.07;;;7.40;;
20480;SDS011;10399;50.754;3.366;2023-06-19T11:11:35;12.23;;;8.50;;
20480;SDS011;10399;50.754;3.366;2023-06-19T11:14:07;13.13;;;8.07;;
20480;SDS011;10399;50.754;3.366;2023-06-19T11:16:40;10.93;;;8.25;;
20480;SDS011;10399;50.754;3.366;2023-06-19T11:19:09;12.75;;;8.40;;
20480;SDS011;10399;50.754;3.366;2023-06-19T11:21:44;13.85;;;10.00;;
20480;SDS011;10399;50.754;3.366;2023-06-19T11:24:16;13.02;;;10.43;;
20480;SDS011;10399;50.754;3.366;2023-06-19T11:26:45;11.32;;;8.68;;
20480;SDS011;10399;50.754;3.366;2023-06-19T11:29:23;12.45;;;8.65;;
20480;SDS011;10399;50.754;3.366;2023-06-19T11:31:53;12.43;;;7.60;;
20480;SDS011;10399;50.754;3.366;2023-06-19T11:34:34;12.05;;;7.30;;
20480;SDS011;10399;50.754;3.366;2023-06-19T11:37:16;9.55;;;7.20;;
20480;SDS011;10399;50.754;3.366;2023-06-19T11:39:48;12.98;;;7.60;;
20480;SDS011;10399;50.754;3.366;2023-06-19T11:42:17;9.13;;;6.88;;
20480;SDS011;10399;50.754;3.366;2023-06-19T11:44:57;9.60;;;7.32;;
20480;SDS011;10399;50.754;3.366;2023-06-19T11:47:30;7.82;;;6.07;;
20480;SDS011;10399;50.754;3.366;2023-06-19T11:49:58;8.18;;;5.82;;
20480;SDS011;10399;50.754;3.366;2023-06-19T11:52:26;9.85;;;5.78;;
20480;SDS011;10399;50.754;3.366;2023-06-19T11:54:53;8.02;;;5.82;;
20480;SDS011;10399;50.754;3.366;2023-06-19T11:57:20;9.80;;;6.25;;
20480;SDS011;10399;50.754;3.366;2023-06-19T11:59:47;9.90;;;6.68;;
20480;SDS011;10399;50.754;3.366;2023-06-19T12:02:14;9.82;;;6.93;;
20480;SDS011;10399;50.754;3.366;2023-06-19T12:04:41;12.68;;;7.07;;
20480;SDS011;10399;50.754;3.366;2023-06-19T12:07:09;11.68;;;7.25;;
20480;SDS011;10399;50.754;3.366;2023-06-19T12:09:37;10.63;;;7.60;;
20480;SDS011;10399;50.754;3.366;2023-06-19T12:12:05;12.15;;;7.50;;
20480;SDS011;10399;50.754;3.366;2023-06-19T12:14:33;10.40;;;7.15;;
20480;SDS011;10399;50.754;3.366;2023-06-19T12:17:00;9.35;;;6.82;;
20480;SDS011;10399;50.754;3.366;2023-06-19T12:19:27;10.65;;;7.57;;
20480;SDS011;10399;50.754;3.366;2023-06-19T12:21:55;11.63;;;7.57;;
20480;SDS011;10399;50.754;3.366;2023-06-19T12:24:22;11.50;;;7.03;;
20480;SDS011;10399;50.754;3.366;2023-06-19T12:26:49;11.68;;;6.65;;
20480;SDS011;10399;50.754;3.366;2023-06-19T12:29:17;9.55;;;6.20;;
20480;SDS011;10399;50.754;3.366;2023-06-19T12:31:47;10.27;;;6.22;;
20480;SDS011;10399;50.754;3.366;2023-06-19T12:34:14;9.13;;;6.53;;
20480;SDS011;10399;50.754;3.366;2023-06-19T12:36:56;10.35;;;6.10;;
20480;SDS011;10399;50.754;3.366;2023-06-19T12:39:24;6.53;;;5.43;;
20480;SDS011;10399;50.754;3.366;2023-06-19T12:41:51;12.45;;;5.70;;
20480;SDS011;10399;50.754;3.366;2023-06-19T12:44:19;11.05;;;6.22;;
20480;SDS011;10399;50.754;3.366;2023-06-19T12:46:47;8.50;;;6.00;;
20480;SDS011;10399;50.754;3.366;2023-06-19T12:49:15;9.65;;;6.53;;
20480;SDS011;10399;50.754;3.366;2023-06-19T12:51:42;8.40;;;5.78;;
20480;SDS011;10399;50.754;3.366;2023-06-19T12:54:09;8.85;;;6.22;;
20480;SDS011;10399;50.754;3.366;2023-06-19T12:56:36;9.35;;;6.28;;
20480;SDS011;10399;50.754;3.366;2023-06-19T12:59:03;8.48;;;6.10;;
20480;SDS011;10399;50.754;3.366;2023-06-19T13:01:30;11.02;;;5.47;;
20480;SDS011;10399;50.754;3.366;2023-06-19T13:03:58;9.18;;;5.55;;
20480;SDS011;10399;50.754;3.366;2023-06-19T13:06:25;13.02;;;5.88;;
20480;SDS011;10399;50.754;3.366;2023-06-19T13:08:52;10.32;;;6.43;;
20480;SDS011;10399;50.754;3.366;2023-06-19T13:11:19;9.15;;;6.07;;
20480;SDS011;10399;50.754;3.366;2023-06-19T13:13:46;10.15;;;6.00;;
20480;SDS011;10399;50.754;3.366;2023-06-19T13:16:13;7.47;;;6.10;;
20480;SDS011;10399;50.754;3.366;2023-06-19T13:18:42;8.38;;;5.70;;
20480;SDS011;10399;50.754;3.366;2023-06-19T13:21:09;9.68;;;5.63;;
20480;SDS011;10399;50.754;3.366;2023-06-19T13:23:37;6.95;;;5.68;;
20480;SDS011;10399;50.754;3.366;2023-06-19T13:26:05;9.77;;;6.10;;
20480;SDS011;10399;50.754;3.366;2023-06-19T13:28:33;8.05;;;5.80;;
20480;SDS011;10399;50.754;3.366;2023-06-19T13:31:00;8.93;;;5.95;;
20480;SDS011;10399;50.754;3.366;2023-06-19T13:33:27;7.72;;;5.78;;
20480;SDS011;10399;50.754;3.366;2023-06-19T13:35:55;12.25;;;5.90;;
20480;SDS011;10399;50.754;3.366;2023-06-19T13:38:22;8.85;;;5.22;;
20480;SDS011;10399;50.754;3.366;2023-06-19T13:40:49;6.55;;;5.10;;
20480;SDS011;10399;50.754;3.366;2023-06-19T13:43:16;7.43;;;5.22;;
20480;SDS011;10399;50.754;3.366;2023-06-19T13:45:43;8.13;;;5.50;;
20480;SDS011;10399;50.754;3.366;2023-06-19T13:48:10;9.85;;;5.35;;
20480;SDS011;10399;50.754;3.366;2023-06-19T13:50:37;11.10;;;6.20;;
20480;SDS011;10399;50.754;3.366;2023-06-19T13:53:05;8.30;;;5.30;;
20480;SDS011;10399;50.754;3.366;2023-06-19T13:55:31;6.90;;;5.20;;
20480;SDS011;10399;50.754;3.366;2023-06-19T13:57:58;7.07;;;4.63;;
20480;SDS011;10399;50.754;3.366;2023-06-19T14:00:26;11.63;;;5.72;;
20480;SDS011;10399;50.754;3.366;2023-06-19T14:02:53;7.25;;;5.15;;
20480;SDS011;10399;50.754;3.366;2023-06-19T14:05:21;10.15;;;5.22;;
20480;SDS011;10399;50.754;3.366;2023-06-19T14:07:48;7.03;;;5.13;;
20480;SDS011;10399;50.754;3.366;2023-06-19T14:10:15;6.22;;;4.90;;
20480;SDS011;10399;50.754;3.366;2023-06-19T14:12:42;9.73;;;5.53;;
20480;SDS011;10399;50.754;3.366;2023-06-19T14:15:09;8.98;;;5.47;;
20480;SDS011;10399;50.754;3.366;2023-06-19T14:17:36;7.45;;;5.00;;
20480;SDS011;10399;50.754;3.366;2023-06-19T14:20:03;8.07;;;5.25;;
20480;SDS011;10399;50.754;3.366;2023-06-19T14:22:31;8.77;;;5.40;;
20480;SDS011;10399;50.754;3.366;2023-06-19T14:24:59;8.27;;;5.07;;
20480;SDS011;10399;50.754;3.366;2023-06-19T14:27:28;9.38;;;5.25;;
20480;SDS011;10399;50.754;3.366;2023-06-19T14:29:56;8.70;;;5.32;;
20480;SDS011;10399;50.754;3.366;2023-06-19T14:32:23;9.27;;;5.38;;
20480;SDS011;10399;50.754;3.366;2023-06-19T14:34:51;6.40;;;5.20;;
20480;SDS011;10399;50.754;3.366;2023-06-19T14:37:18;6.40;;;5.10;;
20480;SDS011;10399;50.754;3.366;2023-06-19T14:39:45;8.57;;;4.78;;
20480;SDS011;10399;50.754;3.366;2023-06-19T14:42:13;7.25;;;4.80;;
20480;SDS011;10399;50.754;3.366;2023-06-19T14:44:40;8.60;;;4.93;;
20480;SDS011;10399;50.754;3.366;2023-06-19T14:47:07;6.70;;;4.60;;
20480;SDS011;10399;50.754;3.366;2023-06-19T14:49:34;7.75;;;4.72;;
20480;SDS011;10399;50.754;3.366;2023-06-19T14:52:01;6.60;;;4.65;;